This is the latest recevied weather packets stored in our database for station/object W7MKM-13. If no packets are shown the sender has not sent any weather packets the latest 10 day(s).
| Time | Temp. | Humidity | Pressure | Rain* | Wind** | Luminosity | Snow |
|---|---|---|---|---|---|---|---|
| 1777044916 | 12.22° C | 37% | 1011.7 hPa | 0 mm | - | 561 W/m² | - |
| 1777042516 | 10° C | 43% | 1011.8 hPa | 0 mm | - | 427 W/m² | - |
| 1777042216 | 10° C | 45% | 1012.1 hPa | 0 mm | - | 410 W/m² | - |
| 1777041916 | 10° C | 47% | 1012.2 hPa | 0 mm | - | 391 W/m² | - |
| 1777041316 | 9.44° C | 50% | 1011.8 hPa | 0 mm | - | 354 W/m² | - |
| 1777040716 | 8.89° C | 52% | 1011.8 hPa | 0 mm | - | 319 W/m² | - |
| 1777038916 | 7.78° C | 53% | 1011.9 hPa | 0 mm | - | 189 W/m² | - |
| 1777033816 | 7.22° C | 58% | 1012.1 hPa | 0 mm | - | 0 W/m² | - |
| 1777033516 | 7.22° C | 58% | 1012.1 hPa | 0 mm | - | 0 W/m² | - |
| 1777032616 | 7.22° C | 61% | 1012.1 hPa | 0 mm | - | 0 W/m² | - |
| 1777031416 | 7.22° C | 62% | 1011.9 hPa | 0 mm | - | 0 W/m² | - |
| 1777016116 | 10° C | 44% | 1013.4 hPa | 0 mm | - | 0 W/m² | - |
| 1777014916 | 10° C | 45% | 1013.5 hPa | 0 mm | - | 0 W/m² | - |
| 1777014016 | 10° C | 45% | 1013.5 hPa | 0 mm | - | 0 W/m² | - |
| 1777012816 | 10° C | 43% | 1013.3 hPa | 0 mm | - | 0 W/m² | - |
| 1777011616 | 10° C | 43% | 1013.4 hPa | 0 mm | - | 0 W/m² | - |
| 1777009516 | 10.56° C | 46% | 1013.9 hPa | 0 mm | - | 0 W/m² | - |
| 1777007116 | 11.11° C | 47% | 1013.9 hPa | 0 mm | - | 0 W/m² | - |
| 1777004416 | 11.11° C | 44% | 1013.9 hPa | 0 mm | - | 0 W/m² | - |
| 1777004116 | 11.11° C | 44% | 1013.9 hPa | 0 mm | - | 0 W/m² | - |
| 1777002916 | 11.67° C | 44% | 1013.9 hPa | 0 mm | - | 0 W/m² | - |
| 1777001716 | 11.11° C | 44% | 1013.9 hPa | 0 mm | - | 0 W/m² | - |
| 1777000216 | 11.11° C | 44% | 1013.9 hPa | 0 mm | - | 0 W/m² | - |
| 1776999016 | 11.67° C | 42% | 1014 hPa | 0 mm | - | 0 W/m² | - |
| 1776995716 | 13.33° C | 37% | 1014.7 hPa | 0 mm | - | 19 W/m² | - |
* Rain latest hour (hover to see other rain measurements)
** Current wind speed in m/s (hover to see current wind gust speed)